Time;durP1;ratioP1;P1;durP2;ratioP2;P2;SDS_P1;SDS_P2;PMS_P1;PMS_P2;Temp;Humidity;BMP_temperature;BMP_pressure;BME280_temperature;BME280_humidity;BME280_pressure;Samples;Min_cycle;Max_cycle;Signal;HPM_P1;HPM_P2
2021/05/17 00:01:50;;;;;;;3.80;1.62;;;;;;;18.90;49.99;99270.09;1795483;80;21709;-55
2021/05/17 00:04:58;;;;;;;4.17;2.12;;;;;;;18.86;50.21;99263.39;1795530;78;21337;-56
2021/05/17 00:08:04;;;;;;;4.25;1.75;;;;;;;18.81;50.40;99256.92;1795466;80;21196;-56
2021/05/17 00:11:11;;;;;;;5.17;2.12;;;;;;;18.77;50.41;99255.24;1795487;80;21228;-56
2021/05/17 00:14:17;;;;;;;8.43;2.20;;;;;;;18.72;50.53;99245.46;1795639;78;21160;-56
2021/05/17 00:17:22;;;;;;;3.50;1.98;;;;;;;18.70;50.60;99249.02;1795508;80;21176;-56
2021/05/17 00:20:31;;;;;;;5.05;1.77;;;;;;;18.67;50.75;99255.08;1795575;78;21204;-55
2021/05/17 00:23:39;;;;;;;6.03;2.10;;;;;;;18.65;51.00;99257.27;1799104;78;21199;-56
2021/05/17 00:26:46;;;;;;;3.58;2.30;;;;;;;18.62;51.44;99253.63;1798618;79;21220;-57
2021/05/17 00:29:55;;;;;;;8.25;2.30;;;;;;;18.57;52.12;99259.08;1798914;78;21207;-55
2021/05/17 00:33:03;;;;;;;5.85;2.25;;;;;;;18.52;52.41;99276.20;1798904;80;21191;-56
2021/05/17 00:36:08;;;;;;;4.28;2.15;;;;;;;18.46;52.70;99279.96;1798799;80;21200;-55
2021/05/17 00:39:17;;;;;;;7.08;2.60;;;;;;;18.39;52.94;99284.32;1798813;78;21193;-56
2021/05/17 00:42:23;;;;;;;5.72;2.33;;;;;;;18.35;53.07;99294.18;1798886;79;21180;-56
2021/05/17 00:45:29;;;;;;;11.53;2.55;;;;;;;18.30;53.39;99294.66;1798753;78;21691;-57
2021/05/17 00:48:37;;;;;;;8.60;2.30;;;;;;;18.26;53.34;99302.63;1798901;78;21195;-57
2021/05/17 00:51:44;;;;;;;7.70;2.30;;;;;;;18.26;53.07;99303.16;1798877;80;21192;-57
2021/05/17 00:54:51;;;;;;;4.53;2.45;;;;;;;18.26;52.86;99314.25;1784404;79;21342;-57
2021/05/17 00:58:00;;;;;;;4.83;2.30;;;;;;;18.24;53.28;99311.73;1798918;80;21267;-56
2021/05/17 01:01:09;;;;;;;6.47;2.67;;;;;;;18.21;53.37;99306.70;1798929;80;21279;-57
2021/05/17 01:04:16;;;;;;;4.30;2.15;;;;;;;18.19;53.25;99299.73;1798889;78;21207;-56
2021/05/17 01:07:27;;;;;;;4.35;2.30;;;;;;;18.16;53.45;99301.06;1798852;80;21199;-56
2021/05/17 01:10:33;;;;;;;5.72;2.10;;;;;;;18.15;54.46;99310.47;1798814;78;21768;-56
2021/05/17 01:13:39;;;;;;;6.78;2.37;;;;;;;18.12;55.16;99322.59;1798894;78;21228;-56
2021/05/17 01:16:46;;;;;;;6.97;2.40;;;;;;;18.10;55.97;99326.14;1798933;80;21850;-57
2021/05/17 01:20:17;;;;;;;7.30;2.55;;;;;;;18.05;56.29;99326.91;1798777;78;21227;-56
2021/05/17 01:26:38;;;;;;;7.30;2.58;;;;;;;18.02;56.58;99342.64;1798758;80;21211;-57
2021/05/17 01:29:44;;;;;;;5.17;2.60;;;;;;;17.97;56.09;99334.23;1798828;78;21763;-56
2021/05/17 01:32:55;;;;;;;6.42;2.75;;;;;;;17.96;56.07;99335.33;1798798;80;21187;-56
2021/05/17 01:35:58;;;;;;;5.40;2.75;;;;;;;17.94;56.39;99343.04;1798957;78;21215;-56
2021/05/17 01:39:03;;;;;;;5.60;2.77;;;;;;;17.92;56.58;99352.13;1798884;78;21270;-56
2021/05/17 01:42:12;;;;;;;6.15;3.08;;;;;;;17.92;56.70;99360.44;1798919;80;21242;-56
2021/05/17 01:45:20;;;;;;;5.80;2.33;;;;;;;17.90;57.32;99373.14;1798829;78;21214;-56
2021/05/17 01:48:32;;;;;;;6.83;2.80;;;;;;;17.86;57.67;99376.66;1798759;80;21215;-57
2021/05/17 01:51:38;;;;;;;3.85;2.60;;;;;;;17.82;58.11;99365.80;1798876;80;21219;-57
2021/05/17 01:54:45;;;;;;;5.22;2.65;;;;;;;17.80;57.95;99370.20;1798886;78;21219;-56
2021/05/17 01:57:50;;;;;;;7.10;2.98;;;;;;;17.82;57.60;99372.16;1798767;80;21197;-56
2021/05/17 02:00:57;;;;;;;7.42;3.00;;;;;;;17.83;57.38;99377.16;1798826;78;21521;-56
2021/05/17 02:04:03;;;;;;;6.37;2.60;;;;;;;17.86;57.33;99359.52;1798943;78;21214;-56
2021/05/17 02:07:09;;;;;;;11.35;3.10;;;;;;;17.87;57.43;99348.73;1798914;80;21180;-56
2021/05/17 02:10:17;;;;;;;5.25;2.77;;;;;;;17.88;57.57;99351.81;1798878;78;21374;-56
2021/05/17 02:13:29;;;;;;;5.30;2.72;;;;;;;17.86;57.65;99341.52;1798770;80;21199;-57
2021/05/17 02:16:34;;;;;;;5.65;3.50;;;;;;;17.83;57.58;99336.48;1798757;80;21215;-57
2021/05/17 02:19:39;;;;;;;6.85;3.15;;;;;;;17.82;58.39;99345.03;1798829;78;21188;-57
2021/05/17 02:22:44;;;;;;;11.22;3.52;;;;;;;17.83;58.84;99337.02;1798888;80;21381;-57
2021/05/17 02:25:55;;;;;;;8.13;3.27;;;;;;;17.81;58.89;99358.03;1813002;77;21211;-57
2021/05/17 02:29:01;;;;;;;6.50;2.85;;;;;;;17.85;58.97;99383.30;1813008;77;21211;-57
2021/05/17 02:32:07;;;;;;;4.50;2.85;;;;;;;17.86;59.28;99423.20;1813016;79;21223;-57
2021/05/17 02:35:16;;;;;;;7.10;3.15;;;;;;;17.83;59.78;99446.38;1812960;77;21898;-57
2021/05/17 02:38:20;;;;;;;7.40;3.50;;;;;;;17.78;59.70;99436.58;1812973;79;21979;-57
2021/05/17 02:41:28;;;;;;;4.12;3.00;;;;;;;17.77;59.85;99443.21;1813179;79;21333;-56
2021/05/17 02:44:34;;;;;;;6.80;2.92;;;;;;;17.80;60.14;99430.26;1812979;78;22154;-55
2021/05/17 02:47:42;;;;;;;6.62;3.22;;;;;;;17.84;59.54;99435.05;1813016;79;21211;-56
2021/05/17 02:50:49;;;;;;;7.55;3.20;;;;;;;17.92;59.34;99415.00;1812887;78;21282;-55
2021/05/17 02:54:05;;;;;;;7.80;2.55;;;;;;;17.98;59.16;99420.93;1812903;78;21353;-55
2021/05/17 02:57:18;;;;;;;11.45;3.17;;;;;;;18.02;58.91;99416.03;1813101;79;21183;-56
2021/05/17 03:00:24;;;;;;;;;;;;;;;18.06;58.74;99400.58;1815621;78;21206;-56
2021/05/17 03:03:31;;;;;;;16.32;7.05;;;;;;;18.09;58.81;99396.50;1812897;79;20287;-56
2021/05/17 03:06:47;;;;;;;14.68;6.35;;;;;;;18.08;58.79;99369.33;1812827;79;21310;-57
2021/05/17 03:09:52;;;;;;;9.50;4.75;;;;;;;18.07;58.98;99364.05;1812919;78;21373;-56
2021/05/17 03:12:59;;;;;;;11.65;4.87;;;;;;;18.05;59.27;99349.06;1813088;79;21317;-57
2021/05/17 03:16:04;;;;;;;14.10;5.12;;;;;;;18.02;59.28;99319.09;1813017;79;21317;-56
2021/05/17 03:19:09;;;;;;;11.30;5.20;;;;;;;18.01;59.30;99302.20;1812910;78;21758;-56
2021/05/17 03:22:20;;;;;;;10.00;4.05;;;;;;;17.96;59.07;99270.79;1812815;79;21344;-56
2021/05/17 03:25:41;;;;;;;9.88;3.08;;;;;;;17.89;58.99;99245.49;1804465;77;21196;-56
2021/05/17 03:28:47;;;;;;;6.85;3.22;;;;;;;17.84;58.98;99224.63;1795403;78;21354;-57
2021/05/17 03:31:54;;;;;;;7.65;3.00;;;;;;;17.81;58.78;99196.60;1795594;80;21345;-58
2021/05/17 03:35:05;;;;;;;6.05;2.90;;;;;;;17.79;58.75;99168.36;1795552;78;21208;-57
2021/05/17 03:38:13;;;;;;;8.98;2.80;;;;;;;17.76;58.78;99146.15;1795522;80;21409;-58
2021/05/17 03:41:19;;;;;;;6.17;2.52;;;;;;;17.79;58.63;99119.91;1795602;80;21311;-56
2021/05/17 03:44:25;;;;;;;4.33;2.70;;;;;;;17.81;58.35;99108.02;1795451;78;21370;-56
2021/05/17 03:47:31;;;;;;;4.95;2.58;;;;;;;17.83;58.23;99103.92;1795496;80;21425;-56
2021/05/17 03:50:37;;;;;;;10.28;3.00;;;;;;;17.87;58.41;99105.07;1795560;78;21864;-57
2021/05/17 03:53:44;;;;;;;8.60;3.05;;;;;;;17.90;58.60;99092.67;1795518;78;21180;-56
2021/05/17 03:56:50;;;;;;;6.55;2.98;;;;;;;17.93;58.43;99086.05;1795607;80;21314;-58
2021/05/17 03:59:56;;;;;;;7.12;3.47;;;;;;;18.01;58.21;99063.19;1795521;78;21220;-58
2021/05/17 04:03:13;;;;;;;9.73;3.85;;;;;;;18.08;57.71;99052.20;1795845;79;21164;-57
2021/05/17 04:06:26;;;;;;;7.00;2.95;;;;;;;18.19;57.42;99054.58;1795745;79;21291;-55
2021/05/17 04:16:16;;;;;;;7.00;3.47;;;;;;;18.60;58.62;99079.78;1795184;79;21724;-54
2021/05/17 04:19:26;;;;;;;7.03;3.85;;;;;;;18.69;58.70;99082.94;1795475;78;21362;-57
2021/05/17 04:22:31;;;;;;;11.10;4.25;;;;;;;18.82;58.51;99095.84;1795448;80;21259;-55
2021/05/17 04:25:37;;;;;;;11.03;4.33;;;;;;;19.00;58.44;99098.27;1793314;78;21196;-57
2021/05/17 04:28:43;;;;;;;18.12;5.60;;;;;;;19.17;57.82;99089.28;1794382;79;21370;-57
2021/05/17 04:31:48;;;;;;;10.55;5.35;;;;;;;19.27;57.09;99085.77;1793280;79;21239;-55
2021/05/17 04:34:55;;;;;;;15.53;4.90;;;;;;;19.38;57.18;99090.91;1793148;78;21373;-54
2021/05/17 04:38:02;;;;;;;14.58;4.65;;;;;;;19.53;56.98;99096.58;1793115;80;21172;-55
2021/05/17 04:41:07;;;;;;;13.35;4.58;;;;;;;19.64;56.86;99108.05;1794233;80;21324;-56
2021/05/17 04:44:15;;;;;;;14.53;4.50;;;;;;;19.81;57.25;99117.07;1795382;78;21362;-55
2021/05/17 04:47:20;;;;;;;19.67;5.60;;;;;;;19.95;56.82;99127.46;1794551;79;21307;-55
2021/05/17 04:50:25;;;;;;;24.82;6.22;;;;;;;20.07;57.10;99160.62;1785215;80;21251;-56
2021/05/17 04:53:32;;;;;;;35.88;9.33;;;;;;;20.22;57.49;99202.43;1792199;80;21365;-56
2021/05/17 04:56:39;;;;;;;23.75;6.28;;;;;;;20.38;58.04;99227.30;1792795;80;21322;-55
2021/05/17 04:59:49;;;;;;;20.00;5.25;;;;;;;20.56;57.91;99241.33;1793765;78;21538;-56
2021/05/17 05:02:55;;;;;;;24.37;6.37;;;;;;;20.69;57.39;99261.72;1794841;79;21927;-56
2021/05/17 05:06:05;;;;;;;22.35;5.42;;;;;;;20.81;57.13;99287.38;1793969;80;21385;-57
2021/05/17 05:09:12;;;;;;;37.10;7.28;;;;;;;20.93;56.71;99299.13;1785343;78;21924;-57
2021/05/17 05:12:21;;;;;;;20.97;6.90;;;;;;;21.05;56.28;99287.83;1782842;79;21208;-59
2021/05/17 05:15:26;;;;;;;37.53;6.85;;;;;;;21.17;55.87;99272.58;1765057;80;21773;-59
2021/05/17 05:18:32;;;;;;;36.10;7.00;;;;;;;21.30;55.65;99286.01;1791908;80;21196;-60
2021/05/17 05:21:48;;;;;;;40.67;7.87;;;;;;;21.40;55.39;99285.21;1782263;80;21329;-59
2021/05/17 05:25:00;;;;;;;41.25;7.95;;;;;;;21.40;54.72;99258.22;1789277;80;21688;-58
2021/05/17 05:28:08;;;;;;;64.00;10.75;;;;;;;21.37;54.32;99185.52;1785786;78;21692;-59
2021/05/17 05:31:26;;;;;;;55.17;9.10;;;;;;;21.31;55.48;99186.63;1794149;80;21839;-59
2021/05/17 05:34:29;;;;;;;56.48;9.03;;;;;;;21.19;57.01;99214.70;1794319;80;21541;-60
2021/05/17 05:37:35;;;;;;;53.60;9.98;;;;;;;21.06;57.99;99204.06;1794507;80;21573;-60
2021/05/17 05:40:41;;;;;;;50.12;9.28;;;;;;;21.00;58.87;99192.64;1794284;80;21196;-59
2021/05/17 05:43:48;;;;;;;59.08;13.60;;;;;;;21.00;58.80;99191.79;1794630;78;21854;-58
2021/05/17 05:46:56;;;;;;;52.15;10.98;;;;;;;21.05;59.08;99182.08;1793988;80;21765;-61
2021/05/17 05:50:02;;;;;;;65.83;16.20;;;;;;;21.14;59.17;99178.48;1793283;80;21358;-58
2021/05/17 05:53:08;;;;;;;62.95;11.78;;;;;;;21.24;58.82;99188.82;1793356;80;21339;-59
2021/05/17 05:56:13;;;;;;;62.65;11.30;;;;;;;21.38;58.30;99201.11;1794007;80;21378;-59
2021/05/17 05:59:18;;;;;;;52.80;11.85;;;;;;;21.51;57.64;99221.48;1794871;78;21365;-59
2021/05/17 06:02:27;;;;;;;57.03;10.43;;;;;;;21.66;57.23;99248.80;1795505;80;21883;-60
2021/05/17 06:05:35;;;;;;;51.37;10.28;;;;;;;21.79;56.90;99225.17;1795408;78;21350;-61
2021/05/17 06:08:41;;;;;;;54.05;12.03;;;;;;;21.89;57.10;99206.54;1794867;78;21458;-60
2021/05/17 06:11:47;;;;;;;58.08;12.28;;;;;;;22.02;58.05;99172.52;1795091;80;21342;-60
2021/05/17 06:14:59;;;;;;;47.90;10.25;;;;;;;22.10;57.82;99158.02;1785086;78;21209;-55
2021/05/17 06:18:01;;;;;;;58.90;10.75;;;;;;;22.21;57.09;99121.23;1790958;80;21219;-59
2021/05/17 06:21:06;;;;;;;64.35;12.60;;;;;;;22.40;56.57;99131.21;1793066;80;21322;-59
2021/05/17 06:24:14;;;;;;;69.03;12.47;;;;;;;22.56;56.29;99096.61;1793925;78;21367;-60
2021/05/17 06:27:20;;;;;;;66.02;13.28;;;;;;;22.69;55.37;99042.41;1794825;80;21196;-59
2021/05/17 06:30:28;;;;;;;80.07;14.70;;;;;;;22.89;55.08;99042.88;1787382;79;21401;-61
2021/05/17 06:33:37;;;;;;;95.70;16.30;;;;;;;23.13;54.93;99078.20;1768541;81;21713;-60
2021/05/17 06:36:46;;;;;;;70.57;13.25;;;;;;;23.39;54.68;99110.98;1785216;79;21145;-61
2021/05/17 06:39:53;;;;;;;60.28;10.35;;;;;;;23.63;54.77;99149.66;1799329;79;21381;-56
2021/05/17 06:42:59;;;;;;;30.05;6.47;;;;;;;23.85;53.59;99169.61;1799878;79;21424;-56
2021/05/17 06:46:08;;;;;;;21.30;5.70;;;;;;;23.82;52.91;99183.35;1800807;79;21327;-59
2021/05/17 06:49:14;;;;;;;28.67;6.60;;;;;;;23.65;53.25;99178.14;1796339;79;21809;-58
2021/05/17 06:52:25;;;;;;;22.13;6.35;;;;;;;23.57;53.39;99171.77;1800240;79;21318;-58
2021/05/17 06:55:40;;;;;;;18.92;5.25;;;;;;;23.42;54.32;99170.49;1796977;79;21305;-57
2021/05/17 06:58:58;;;;;;;23.95;6.87;;;;;;;23.27;54.40;99175.59;1750959;81;21767;-58
2021/05/17 07:02:05;;;;;;;24.75;6.33;;;;;;;23.07;54.23;99170.06;1789938;79;21343;-59
2021/05/17 07:05:13;;;;;;;20.92;5.37;;;;;;;23.02;54.90;99171.50;1800064;79;21202;-57
2021/05/17 07:11:57;;;;;;;16.15;4.90;;;;;;;22.86;54.96;99185.79;1781443;79;21174;-59
2021/05/17 07:15:05;;;;;;;17.82;6.20;;;;;;;22.74;54.29;99175.52;1766390;81;21206;-60
2021/05/17 07:18:09;;;;;;;15.83;5.03;;;;;;;22.70;55.04;99181.38;1776967;80;21208;-60
2021/05/17 07:24:23;;;;;;;25.35;5.00;;;;;;;22.81;55.60;99174.09;1784460;80;21879;-59
2021/05/17 07:27:26;;;;;;;25.52;5.92;;;;;;;22.89;55.66;99174.91;1784113;80;21788;-59
2021/05/17 07:30:33;;;;;;;32.17;6.78;;;;;;;23.03;55.10;99160.60;1783953;80;21872;-57
2021/05/17 07:33:38;;;;;;;19.65;5.30;;;;;;;23.15;54.25;99156.09;1761648;81;21859;-58
2021/05/17 07:36:46;;;;;;;31.12;6.67;;;;;;;23.25;54.03;99161.08;1780886;80;21927;-59
2021/05/17 07:39:50;;;;;;;32.50;7.60;;;;;;;23.38;54.51;99158.20;1790330;79;21327;-54
2021/05/17 07:42:56;;;;;;;30.52;8.40;;;;;;;23.56;54.43;99166.73;1779471;80;21373;-54
2021/05/17 07:46:02;;;;;;;29.30;7.95;;;;;;;23.74;53.11;99181.98;1789351;80;21355;-56
2021/05/17 07:49:13;;;;;;;32.65;6.67;;;;;;;23.87;52.81;99201.45;1760349;80;21352;-56
2021/05/17 07:52:20;;;;;;;33.67;6.78;;;;;;;23.97;52.93;99200.87;1761530;81;21229;-59
2021/05/17 07:55:26;;;;;;;27.17;6.85;;;;;;;24.04;52.35;99199.95;1761031;81;21261;-57
2021/05/17 07:58:31;;;;;;;30.77;7.42;;;;;;;24.10;52.56;99198.78;1762262;81;21718;-57
2021/05/17 08:01:37;;;;;;;30.75;7.37;;;;;;;24.17;52.35;99203.49;1736680;82;21358;-56
2021/05/17 08:04:46;;;;;;;30.10;6.78;;;;;;;24.21;52.09;99207.39;1748752;81;21813;-58
2021/05/17 08:07:52;;;;;;;43.70;7.90;;;;;;;24.27;52.57;99243.97;1793373;80;21894;-57
2021/05/17 08:11:00;;;;;;;42.17;8.38;;;;;;;24.41;52.49;99278.55;1784152;80;21366;-55
2021/05/17 08:14:04;;;;;;;40.70;8.40;;;;;;;24.62;51.74;99287.04;1790827;78;21242;-56
2021/05/17 08:17:12;;;;;;;27.55;6.40;;;;;;;24.85;50.65;99292.43;1794798;80;21177;-56
2021/05/17 08:20:18;;;;;;;22.73;5.75;;;;;;;24.96;50.91;99292.59;1794781;78;21291;-58
2021/05/17 08:23:24;;;;;;;29.02;5.55;;;;;;;24.76;51.27;99293.66;1759269;80;22110;-54
2021/05/17 08:26:31;;;;;;;20.52;5.83;;;;;;;24.46;52.22;99291.65;1763856;79;21221;-52
2021/05/17 08:29:37;;;;;;;17.52;5.42;;;;;;;24.28;52.51;99274.16;1759610;80;21473;-53
2021/05/17 08:32:43;;;;;;;15.03;5.37;;;;;;;24.22;53.17;99265.54;1806397;78;21192;-60
2021/05/17 08:35:49;;;;;;;13.03;5.05;;;;;;;24.29;53.53;99273.05;1778639;78;21713;-57
2021/05/17 08:38:57;;;;;;;13.60;4.83;;;;;;;24.30;54.05;99268.56;1772944;80;21200;-59
2021/05/17 08:42:05;;;;;;;16.90;5.17;;;;;;;24.22;53.96;99267.78;1796919;79;21342;-59
2021/05/17 08:45:12;;;;;;;14.03;5.35;;;;;;;24.09;54.24;99274.03;1763020;80;21220;-56
2021/05/17 08:48:17;;;;;;;20.12;5.17;;;;;;;23.97;54.57;99267.98;1753540;81;21197;-55
2021/05/17 08:51:33;;;;;;;18.75;5.42;;;;;;;23.90;54.86;99267.41;1736279;81;21738;-56
2021/05/17 08:54:41;;;;;;;16.77;6.03;;;;;;;23.83;54.82;99264.13;1731463;81;21304;-59
2021/05/17 08:57:52;;;;;;;16.27;6.67;;;;;;;23.69;55.11;99264.46;1763269;81;21852;-55
2021/05/17 09:01:01;;;;;;;17.52;5.65;;;;;;;23.67;54.77;99258.34;1736328;81;21263;-59
2021/05/17 09:04:12;;;;;;;15.88;5.58;;;;;;;23.76;54.48;99248.22;1762553;80;21208;-56
2021/05/17 09:07:18;;;;;;;17.32;7.10;;;;;;;24.06;54.57;99257.83;1790211;80;21937;-56
2021/05/17 09:10:36;;;;;;;19.92;5.62;;;;;;;24.26;53.53;99280.62;1793789;78;21267;-57
2021/05/17 09:13:35;;;;;;;15.32;5.33;;;;;;;24.24;52.68;99270.29;1757446;79;21184;-60
2021/05/17 09:17:06;;;;;;;17.55;5.90;;;;;;;24.26;52.71;99268.05;1770382;80;21188;-58
2021/05/17 09:20:17;;;;;;;24.30;5.65;;;;;;;24.37;52.46;99271.84;1775854;80;21219;-61
2021/05/17 09:23:38;;;;;;;31.33;6.78;;;;;;;24.52;51.69;99274.53;1776461;80;21165;-61
2021/05/17 09:26:43;;;;;;;30.72;6.72;;;;;;;24.58;51.31;99262.70;1745899;82;21788;-59
2021/05/17 09:29:53;;;;;;;17.35;4.95;;;;;;;24.73;51.72;99257.85;1722566;82;21231;-58
2021/05/17 09:32:59;;;;;;;17.30;5.30;;;;;;;24.94;51.13;99254.28;1762668;80;21192;-60
2021/05/17 09:36:05;;;;;;;23.47;6.10;;;;;;;25.10;50.30;99249.34;1763662;81;21342;-60
2021/05/17 09:39:19;;;;;;;23.85;5.97;;;;;;;25.21;50.05;99253.68;1764094;80;21219;-59
2021/05/17 09:42:22;;;;;;;21.12;5.78;;;;;;;25.42;49.49;99239.14;1763971;81;21192;-60
2021/05/17 09:45:29;;;;;;;27.32;6.65;;;;;;;25.52;49.19;99234.81;1764026;80;21278;-58
2021/05/17 09:48:47;;;;;;;22.02;5.72;;;;;;;25.61;48.89;99232.18;1772463;79;21785;-59
2021/05/17 09:51:44;;;;;;;26.87;6.47;;;;;;;25.67;48.50;99229.56;1794703;80;21374;-57
2021/05/17 09:55:17;;;;;;;24.87;6.15;;;;;;;25.72;49.16;99221.90;1784710;80;21851;-58
2021/05/17 09:58:43;;;;;;;;;;;;;;;25.76;49.75;99225.78;1796351;80;21370;-61
2021/05/17 10:01:49;;;;;;;35.90;6.30;;;;;;;25.92;49.79;99231.99;1793368;80;20244;-59
2021/05/17 10:04:54;;;;;;;27.58;6.85;;;;;;;26.04;49.08;99230.42;1791590;80;21318;-58
2021/05/17 10:08:12;;;;;;;34.40;6.70;;;;;;;26.09;49.23;99231.75;1808723;78;22164;-59
2021/05/17 10:11:18;;;;;;;33.40;6.75;;;;;;;26.14;49.30;99220.45;1771632;80;21200;-58
2021/05/17 10:14:25;;;;;;;30.45;7.00;;;;;;;26.31;49.08;99213.70;1767024;80;21224;-59
2021/05/17 10:17:30;;;;;;;34.90;7.92;;;;;;;26.65;49.52;99212.57;1775335;80;21750;-58
2021/05/17 10:20:36;;;;;;;39.13;8.10;;;;;;;27.00;48.02;99215.55;1780401;80;21585;-57
2021/05/17 10:23:43;;;;;;;31.70;7.47;;;;;;;27.23;47.67;99204.66;1778361;80;21208;-57
2021/05/17 10:26:49;;;;;;;34.23;8.08;;;;;;;27.38;47.20;99202.98;1765574;81;21243;-56
2021/05/17 10:29:56;;;;;;;37.70;7.72;;;;;;;27.52;47.64;99205.19;1752855;81;21913;-56
2021/05/17 10:33:05;;;;;;;40.88;8.90;;;;;;;27.63;46.50;99203.81;1785565;79;21189;-61
2021/05/17 10:36:13;;;;;;;56.68;9.08;;;;;;;27.68;46.26;99206.52;1784204;78;21699;-60
2021/05/17 10:39:24;;;;;;;45.90;9.75;;;;;;;27.73;46.52;99212.59;1752158;80;21441;-59
2021/05/17 10:42:40;;;;;;;45.43;9.15;;;;;;;27.88;46.31;99210.85;1788835;80;21231;-59
2021/05/17 10:48:58;;;;;;;49.50;10.05;;;;;;;28.33;45.54;99211.16;1793741;78;21369;-59
2021/05/17 10:52:20;;;;;;;57.20;11.12;;;;;;;28.30;44.85;99195.47;1793629;80;21866;-60
2021/05/17 10:55:26;;;;;;;68.83;10.75;;;;;;;28.18;45.24;99197.45;1759843;80;21255;-59
2021/05/17 11:02:33;;;;;;;70.97;12.37;;;;;;;28.11;45.17;99197.64;1763457;81;21806;-59
2021/05/17 11:05:39;;;;;;;69.82;13.78;;;;;;;27.99;45.11;99193.17;1778123;79;21320;-61
2021/05/17 11:08:46;;;;;;;74.45;14.03;;;;;;;28.01;44.92;99202.10;1771005;81;21632;-61
2021/05/17 11:11:52;;;;;;;76.80;13.50;;;;;;;27.92;44.92;99194.17;1746996;81;21200;-60
2021/05/17 11:15:19;;;;;;;65.52;14.05;;;;;;;27.96;45.49;99204.47;1741787;81;21216;-60
2021/05/17 11:18:33;;;;;;;63.20;12.78;;;;;;;28.07;45.76;99206.48;1770057;79;21244;-61
2021/05/17 11:21:37;;;;;;;;;;;;;;;27.96;44.89;99205.03;1748552;81;21857;-60
2021/05/17 11:24:43;;;;;;;75.50;13.60;;;;;;;27.76;45.60;99209.98;1770895;79;20246;-58
2021/05/17 11:27:54;;;;;;;59.23;11.85;;;;;;;27.61;46.48;99219.32;1720018;81;21782;-59
2021/05/17 11:31:02;;;;;;;76.65;13.43;;;;;;;27.53;46.61;99216.69;1791432;80;21769;-61
2021/05/17 11:34:14;;;;;;;79.27;14.38;;;;;;;27.52;46.52;99217.84;1754759;79;21252;-60
2021/05/17 11:37:24;;;;;;;64.37;13.35;;;;;;;27.48;46.62;99222.41;1768592;81;21686;-59
2021/05/17 11:40:37;;;;;;;75.78;14.18;;;;;;;27.37;46.94;99225.19;1763426;80;21629;-60
2021/05/17 11:43:50;;;;;;;72.82;13.53;;;;;;;27.27;47.33;99214.73;1765087;81;21216;-60
2021/05/17 11:46:58;;;;;;;72.55;14.07;;;;;;;27.23;48.03;99224.89;1764856;81;21932;-60
2021/05/17 11:50:05;;;;;;;69.75;14.23;;;;;;;27.23;47.76;99224.33;1748528;81;21313;-59
2021/05/17 11:53:11;;;;;;;52.10;13.30;;;;;;;27.20;48.03;99225.52;1741057;81;21534;-58
2021/05/17 11:56:21;;;;;;;53.58;12.20;;;;;;;27.20;48.57;99223.55;1793043;79;21241;-61
2021/05/17 11:59:31;;;;;;;46.70;11.95;;;;;;;27.24;48.54;99227.39;1770833;79;21265;-60
2021/05/17 12:02:37;;;;;;;43.05;10.10;;;;;;;27.31;47.92;99225.04;1778910;78;21170;-59
2021/05/17 12:05:53;;;;;;;35.58;10.40;;;;;;;27.38;47.68;99231.09;1773907;79;21738;-59
2021/05/17 12:09:00;;;;;;;39.78;10.53;;;;;;;27.49;47.74;99240.97;1767086;81;21213;-59
2021/05/17 12:12:10;;;;;;;23.22;7.17;;;;;;;27.65;47.30;99235.25;1777815;79;21900;-62
2021/05/17 12:15:17;;;;;;;21.07;6.58;;;;;;;27.90;47.22;99240.08;1778223;79;21265;-58
2021/05/17 12:18:21;;;;;;;20.10;6.80;;;;;;;28.05;47.31;99246.17;1775786;79;21190;-60
2021/05/17 12:21:27;;;;;;;19.82;5.80;;;;;;;28.14;46.93;99247.66;1768014;81;21676;-59
2021/05/17 12:24:35;;;;;;;14.40;6.00;;;;;;;28.05;47.38;99258.83;1773664;79;21190;-60
2021/05/17 12:27:40;;;;;;;18.42;6.80;;;;;;;27.84;48.72;99265.47;1775750;79;21363;-57
2021/05/17 12:30:48;;;;;;;17.85;6.67;;;;;;;27.74;49.11;99265.72;1761735;81;21234;-61
2021/05/17 12:33:55;;;;;;;18.70;6.22;;;;;;;27.61;48.81;99272.19;1754218;81;21820;-60
2021/05/17 12:37:02;;;;;;;10.68;5.87;;;;;;;27.57;49.15;99272.57;1768914;80;21903;-62
2021/05/17 12:40:34;;;;;;;20.85;5.78;;;;;;;27.65;48.14;99281.65;1770318;81;21478;-61
2021/05/17 12:43:39;;;;;;;18.98;5.53;;;;;;;27.67;47.77;99280.77;1748223;82;21275;-61
2021/05/17 12:46:47;;;;;;;12.45;4.95;;;;;;;27.68;47.66;99287.23;1780469;80;21858;-61
2021/05/17 12:50:00;;;;;;;15.15;5.45;;;;;;;27.75;47.18;99296.91;1753481;80;21798;-58
2021/05/17 12:53:18;;;;;;;12.63;4.87;;;;;;;27.81;47.51;99294.83;1752511;82;21200;-57
2021/05/17 12:56:40;;;;;;;15.65;5.35;;;;;;;28.11;47.24;99301.78;1779873;80;21847;-57
2021/05/17 12:59:54;;;;;;;14.53;4.83;;;;;;;28.25;45.98;99294.97;1780488;79;21656;-61
2021/05/17 13:03:21;;;;;;;16.10;5.58;;;;;;;28.15;45.73;99295.76;1811090;79;21329;-57
2021/05/17 13:06:32;;;;;;;10.45;4.60;;;;;;;27.79;46.29;99303.59;1805704;79;21929;-57
2021/05/17 13:09:38;;;;;;;12.47;5.45;;;;;;;27.71;46.99;99293.64;1793602;79;21227;-56
2021/05/17 13:12:58;;;;;;;13.62;5.22;;;;;;;27.83;47.56;99298.98;1797990;79;21318;-58
2021/05/17 13:16:08;;;;;;;8.13;4.85;;;;;;;28.02;47.36;99295.25;1799686;79;21716;-60
2021/05/17 13:23:03;;;;;;;17.57;4.92;;;;;;;28.15;45.77;99304.20;1799047;79;21819;-59
2021/05/17 13:32:38;;;;;;;11.57;4.95;;;;;;;27.88;46.25;99302.85;1810519;79;21187;-59
2021/05/17 13:35:43;;;;;;;10.10;5.03;;;;;;;28.03;45.89;99298.30;1842265;76;21697;-60
2021/05/17 13:38:53;;;;;;;13.20;4.87;;;;;;;28.15;45.12;99305.61;1788365;79;21339;-63
2021/05/17 13:42:05;;;;;;;7.20;5.03;;;;;;;28.24;44.61;99312.98;1785745;80;21178;-60
2021/05/17 13:45:14;;;;;;;10.13;4.35;;;;;;;28.31;44.56;99319.03;1778826;78;21334;-61
2021/05/17 13:48:22;;;;;;;8.93;3.20;;;;;;;28.44;43.91;99319.56;1793835;80;21391;-59
2021/05/17 13:51:33;;;;;;;8.83;4.20;;;;;;;28.36;43.92;99323.70;1790177;80;21231;-59
2021/05/17 13:54:41;;;;;;;7.20;3.30;;;;;;;28.35;43.57;99324.27;1763102;80;21227;-59
2021/05/17 13:57:52;;;;;;;9.03;3.57;;;;;;;28.19;43.60;99334.80;1787914;80;21168;-60
2021/05/17 14:00:58;;;;;;;4.97;2.83;;;;;;;27.94;44.39;99338.20;1793682;78;21636;-65
2021/05/17 14:04:05;;;;;;;5.30;2.87;;;;;;;27.82;44.58;99340.09;1762420;80;21223;-60
2021/05/17 14:07:12;;;;;;;4.65;2.75;;;;;;;27.74;44.58;99338.85;1789156;80;21168;-60
2021/05/17 14:10:21;;;;;;;6.55;2.90;;;;;;;27.64;44.59;99341.87;1794469;78;21718;-64
2021/05/17 14:13:27;;;;;;;5.60;2.42;;;;;;;27.50;45.24;99341.59;1793604;79;21389;-57
2021/05/17 14:16:40;;;;;;;5.05;2.70;;;;;;;27.69;45.30;99334.73;1794875;79;21358;-61
2021/05/17 14:19:47;;;;;;;8.93;2.80;;;;;;;27.95;44.53;99345.48;1795056;78;21405;-62
2021/05/17 14:22:53;;;;;;;6.40;2.72;;;;;;;28.07;44.09;99342.38;1794840;79;21805;-61
2021/05/17 14:26:00;;;;;;;7.30;2.58;;;;;;;28.12;43.96;99352.69;1793748;80;21168;-57
2021/05/17 14:29:05;;;;;;;6.30;2.85;;;;;;;28.00;43.75;99357.47;1795458;78;21345;-58
2021/05/17 14:32:13;;;;;;;7.83;2.60;;;;;;;28.10;43.75;99362.85;1795045;79;21343;-58
2021/05/17 14:35:20;;;;;;;7.95;2.85;;;;;;;28.35;43.06;99358.05;1780523;78;21319;-59
2021/05/17 14:38:25;;;;;;;5.30;2.62;;;;;;;28.30;42.87;99355.95;1766122;79;21219;-59
2021/05/17 14:41:31;;;;;;;8.23;2.60;;;;;;;28.17;42.84;99362.43;1773449;80;21581;-58
2021/05/17 14:44:37;;;;;;;8.13;2.83;;;;;;;28.39;43.07;99360.52;1771129;80;21745;-58
2021/05/17 14:47:42;;;;;;;5.22;2.45;;;;;;;28.59;41.91;99367.69;1767788;80;21879;-59
2021/05/17 14:50:47;;;;;;;4.03;2.27;;;;;;;28.53;42.41;99357.67;1749008;81;21271;-61
2021/05/17 14:53:55;;;;;;;5.25;2.50;;;;;;;28.92;41.85;99367.70;1769818;80;21255;-59
2021/05/17 14:57:00;;;;;;;9.23;2.67;;;;;;;29.29;40.66;99372.94;1768317;79;21368;-62
2021/05/17 15:00:04;;;;;;;6.25;2.50;;;;;;;29.66;39.62;99373.92;1761869;81;21396;-57
2021/05/17 15:03:11;;;;;;;5.67;2.10;;;;;;;29.82;39.17;99372.33;1773964;80;21912;-58
2021/05/17 15:06:19;;;;;;;14.07;3.50;;;;;;;30.04;38.77;99378.45;1793047;80;21172;-58
2021/05/17 15:09:28;;;;;;;5.92;2.80;;;;;;;30.00;38.76;99369.80;1779624;79;21708;-58
2021/05/17 15:12:39;;;;;;;5.83;2.80;;;;;;;29.95;38.65;99363.48;1784333;80;21188;-58